sensor_id;sensor_type;location;lat;lon;timestamp;pressure;altitude;pressure_sealevel;temperature;humidity
50282;BME280;36176;51.506;10.272;2023-11-21T02:47:00;98967.84;;;4.95;100.00
50282;BME280;36176;51.506;10.272;2023-11-21T02:49:28;98970.56;;;4.94;100.00
50282;BME280;36176;51.506;10.272;2023-11-21T02:51:56;98966.31;;;4.89;100.00
50282;BME280;36176;51.506;10.272;2023-11-21T02:54:23;98969.84;;;4.88;100.00
50282;BME280;36176;51.506;10.272;2023-11-21T02:56:50;98966.25;;;4.91;100.00
50282;BME280;36176;51.506;10.272;2023-11-21T02:59:17;98963.53;;;4.94;100.00
50282;BME280;36176;51.506;10.272;2023-11-21T03:01:45;98961.78;;;4.93;100.00
50282;BME280;36176;51.506;10.272;2023-11-21T03:04:12;98968.94;;;4.89;100.00
50282;BME280;36176;51.506;10.272;2023-11-21T03:06:39;98969.03;;;4.86;100.00
50282;BME280;36176;51.506;10.272;2023-11-21T03:09:06;98972.41;;;4.90;100.00
50282;BME280;36176;51.506;10.272;2023-11-21T03:11:34;98971.25;;;4.99;100.00
50282;BME280;36176;51.506;10.272;2023-11-21T03:14:01;98977.31;;;5.01;100.00
50282;BME280;36176;51.506;10.272;2023-11-21T03:16:28;98983.31;;;5.04;100.00
50282;BME280;36176;51.506;10.272;2023-11-21T03:18:55;98976.00;;;5.14;100.00
50282;BME280;36176;51.506;10.272;2023-11-21T03:21:22;98976.66;;;5.21;100.00
50282;BME280;36176;51.506;10.272;2023-11-21T03:23:49;98966.03;;;5.24;100.00
50282;BME280;36176;51.506;10.272;2023-11-21T03:26:16;98968.66;;;5.24;100.00
50282;BME280;36176;51.506;10.272;2023-11-21T03:28:44;98970.75;;;5.14;100.00
50282;BME280;36176;51.506;10.272;2023-11-21T03:31:12;98980.59;;;5.07;100.00
50282;BME280;36176;51.506;10.272;2023-11-21T03:33:39;98977.38;;;4.99;100.00
50282;BME280;36176;51.506;10.272;2023-11-21T03:36:06;98987.34;;;4.88;100.00
50282;BME280;36176;51.506;10.272;2023-11-21T03:38:34;98980.78;;;4.75;100.00
50282;BME280;36176;51.506;10.272;2023-11-21T03:41:01;98985.59;;;4.60;100.00
50282;BME280;36176;51.506;10.272;2023-11-21T03:43:29;98990.16;;;4.54;100.00
50282;BME280;36176;51.506;10.272;2023-11-21T03:45:56;98989.31;;;4.53;100.00
50282;BME280;36176;51.506;10.272;2023-11-21T03:48:24;98990.25;;;4.51;100.00
50282;BME280;36176;51.506;10.272;2023-11-21T03:50:52;98995.59;;;4.47;100.00
50282;BME280;36176;51.506;10.272;2023-11-21T03:53:19;98991.38;;;4.42;100.00
50282;BME280;36176;51.506;10.272;2023-11-21T03:55:46;99000.25;;;4.38;100.00
50282;BME280;36176;51.506;10.272;2023-11-21T03:58:13;99002.28;;;4.28;100.00
50282;BME280;36176;51.506;10.272;2023-11-21T04:00:40;98998.91;;;4.24;100.00
50282;BME280;36176;51.506;10.272;2023-11-21T04:03:07;98991.91;;;4.23;100.00
50282;BME280;36176;51.506;10.272;2023-11-21T04:05:35;99006.03;;;4.19;100.00
50282;BME280;36176;51.506;10.272;2023-11-21T04:08:02;99009.03;;;4.07;100.00
50282;BME280;36176;51.506;10.272;2023-11-21T04:10:29;99008.25;;;4.02;100.00
50282;BME280;36176;51.506;10.272;2023-11-21T04:12:56;99017.03;;;4.01;100.00
50282;BME280;36176;51.506;10.272;2023-11-21T04:15:24;99013.50;;;4.02;100.00
50282;BME280;36176;51.506;10.272;2023-11-21T04:17:51;99012.44;;;4.09;100.00
50282;BME280;36176;51.506;10.272;2023-11-21T04:20:18;99016.59;;;4.16;100.00
50282;BME280;36176;51.506;10.272;2023-11-21T04:22:45;99011.34;;;4.16;100.00
50282;BME280;36176;51.506;10.272;2023-11-21T04:25:14;99009.56;;;4.18;100.00
50282;BME280;36176;51.506;10.272;2023-11-21T04:27:43;99010.38;;;4.20;100.00
50282;BME280;36176;51.506;10.272;2023-11-21T04:30:12;99015.66;;;4.19;100.00
50282;BME280;36176;51.506;10.272;2023-11-21T04:32:40;99023.59;;;4.17;100.00
50282;BME280;36176;51.506;10.272;2023-11-21T04:35:08;99022.66;;;4.18;100.00
50282;BME280;36176;51.506;10.272;2023-11-21T04:37:35;99020.88;;;4.20;100.00
50282;BME280;36176;51.506;10.272;2023-11-21T04:40:03;99026.22;;;4.16;100.00
50282;BME280;36176;51.506;10.272;2023-11-21T04:42:30;99020.13;;;4.15;100.00
50282;BME280;36176;51.506;10.272;2023-11-21T04:44:57;99033.09;;;4.21;100.00
50282;BME280;36176;51.506;10.272;2023-11-21T04:47:24;99039.91;;;4.27;100.00
50282;BME280;36176;51.506;10.272;2023-11-21T04:49:51;99038.94;;;4.31;100.00
50282;BME280;36176;51.506;10.272;2023-11-21T04:52:18;99044.03;;;4.36;100.00
50282;BME280;36176;51.506;10.272;2023-11-21T04:54:46;99043.72;;;4.46;100.00
50282;BME280;36176;51.506;10.272;2023-11-21T04:57:13;99046.00;;;4.57;100.00
50282;BME280;36176;51.506;10.272;2023-11-21T04:59:40;99048.47;;;4.63;100.00
50282;BME280;36176;51.506;10.272;2023-11-21T05:02:07;99048.38;;;4.66;100.00
50282;BME280;36176;51.506;10.272;2023-11-21T05:04:39;99057.84;;;4.72;100.00
50282;BME280;36176;51.506;10.272;2023-11-21T05:07:06;99061.09;;;4.80;100.00
50282;BME280;36176;51.506;10.272;2023-11-21T05:09:33;99063.53;;;4.86;100.00
50282;BME280;36176;51.506;10.272;2023-11-21T05:12:01;99059.84;;;4.92;100.00
50282;BME280;36176;51.506;10.272;2023-11-21T05:14:28;99055.31;;;4.97;100.00
50282;BME280;36176;51.506;10.272;2023-11-21T05:16:55;99056.97;;;5.00;100.00
50282;BME280;36176;51.506;10.272;2023-11-21T05:19:22;99061.38;;;4.99;100.00
50282;BME280;36176;51.506;10.272;2023-11-21T05:21:50;99066.63;;;4.99;100.00
50282;BME280;36176;51.506;10.272;2023-11-21T05:24:17;99059.56;;;5.01;100.00
50282;BME280;36176;51.506;10.272;2023-11-21T05:26:44;99067.41;;;5.03;100.00
50282;BME280;36176;51.506;10.272;2023-11-21T05:29:12;99069.16;;;5.02;100.00
50282;BME280;36176;51.506;10.272;2023-11-21T05:31:39;99079.59;;;5.05;100.00
50282;BME280;36176;51.506;10.272;2023-11-21T05:34:07;99083.06;;;5.06;100.00
50282;BME280;36176;51.506;10.272;2023-11-21T05:36:34;99078.66;;;5.06;100.00
50282;BME280;36176;51.506;10.272;2023-11-21T05:39:01;99084.69;;;5.10;100.00
50282;BME280;36176;51.506;10.272;2023-11-21T05:41:29;99086.31;;;5.14;100.00
50282;BME280;36176;51.506;10.272;2023-11-21T05:43:56;99084.38;;;5.19;100.00
50282;BME280;36176;51.506;10.272;2023-11-21T05:46:23;99088.75;;;5.20;100.00
50282;BME280;36176;51.506;10.272;2023-11-21T05:48:50;99093.03;;;5.23;100.00
50282;BME280;36176;51.506;10.272;2023-11-21T05:51:17;99098.19;;;5.26;100.00
50282;BME280;36176;51.506;10.272;2023-11-21T05:53:44;99103.34;;;5.29;100.00
50282;BME280;36176;51.506;10.272;2023-11-21T05:56:11;99102.44;;;5.30;100.00
50282;BME280;36176;51.506;10.272;2023-11-21T05:58:39;99099.59;;;5.36;100.00
50282;BME280;36176;51.506;10.272;2023-11-21T06:01:06;99104.66;;;5.44;100.00
50282;BME280;36176;51.506;10.272;2023-11-21T06:03:33;99103.56;;;5.49;100.00
50282;BME280;36176;51.506;10.272;2023-11-21T06:06:00;99101.06;;;5.46;100.00
50282;BME280;36176;51.506;10.272;2023-11-21T06:08:27;99108.88;;;5.48;100.00
50282;BME280;36176;51.506;10.272;2023-11-21T06:10:55;99113.31;;;5.46;100.00
50282;BME280;36176;51.506;10.272;2023-11-21T06:13:22;99109.81;;;5.45;100.00
50282;BME280;36176;51.506;10.272;2023-11-21T06:15:50;99110.69;;;5.46;100.00
50282;BME280;36176;51.506;10.272;2023-11-21T06:18:18;99115.00;;;5.48;100.00
50282;BME280;36176;51.506;10.272;2023-11-21T06:20:46;99113.94;;;5.54;100.00
50282;BME280;36176;51.506;10.272;2023-11-21T06:23:13;99116.34;;;5.60;100.00
50282;BME280;36176;51.506;10.272;2023-11-21T06:25:41;99124.97;;;5.65;100.00
50282;BME280;36176;51.506;10.272;2023-11-21T06:28:08;99120.50;;;5.67;100.00
50282;BME280;36176;51.506;10.272;2023-11-21T06:30:35;99120.56;;;5.66;100.00
50282;BME280;36176;51.506;10.272;2023-11-21T06:33:02;99128.56;;;5.63;100.00
50282;BME280;36176;51.506;10.272;2023-11-21T06:35:29;99130.13;;;5.68;100.00
50282;BME280;36176;51.506;10.272;2023-11-21T06:37:57;99137.00;;;5.72;100.00
50282;BME280;36176;51.506;10.272;2023-11-21T06:40:24;99140.50;;;5.73;100.00
50282;BME280;36176;51.506;10.272;2023-11-21T06:42:51;99149.19;;;5.75;100.00
50282;BME280;36176;51.506;10.272;2023-11-21T06:45:18;99146.41;;;5.80;100.00
50282;BME280;36176;51.506;10.272;2023-11-21T06:47:45;99145.31;;;5.87;100.00
50282;BME280;36176;51.506;10.272;2023-11-21T06:50:13;99155.69;;;5.90;100.00
50282;BME280;36176;51.506;10.272;2023-11-21T06:52:41;99153.94;;;5.90;100.00
50282;BME280;36176;51.506;10.272;2023-11-21T06:55:08;99160.84;;;5.93;100.00
50282;BME280;36176;51.506;10.272;2023-11-21T06:57:36;99163.47;;;5.94;100.00
50282;BME280;36176;51.506;10.272;2023-11-21T07:00:04;99160.84;;;5.94;100.00
50282;BME280;36176;51.506;10.272;2023-11-21T07:02:31;99159.91;;;5.95;100.00
50282;BME280;36176;51.506;10.272;2023-11-21T07:04:59;99164.44;;;5.90;100.00
50282;BME280;36176;51.506;10.272;2023-11-21T07:07:27;99167.94;;;5.91;100.00
50282;BME280;36176;51.506;10.272;2023-11-21T07:09:54;99176.75;;;5.90;100.00
50282;BME280;36176;51.506;10.272;2023-11-21T07:12:21;99176.63;;;5.94;100.00
50282;BME280;36176;51.506;10.272;2023-11-21T07:14:49;99173.84;;;5.99;100.00
50282;BME280;36176;51.506;10.272;2023-11-21T07:17:16;99185.06;;;6.04;100.00
50282;BME280;36176;51.506;10.272;2023-11-21T07:19:43;99184.09;;;6.07;100.00
50282;BME280;36176;51.506;10.272;2023-11-21T07:22:11;99192.91;;;6.06;100.00
50282;BME280;36176;51.506;10.272;2023-11-21T07:24:38;99199.72;;;6.11;100.00
50282;BME280;36176;51.506;10.272;2023-11-21T07:27:05;99198.72;;;6.15;100.00
50282;BME280;36176;51.506;10.272;2023-11-21T07:29:32;99199.34;;;6.22;100.00
50282;BME280;36176;51.506;10.272;2023-11-21T07:31:59;99196.56;;;6.27;100.00
50282;BME280;36176;51.506;10.272;2023-11-21T07:34:27;99205.28;;;6.29;100.00
50282;BME280;36176;51.506;10.272;2023-11-21T07:36:54;99205.09;;;6.35;100.00
50282;BME280;36176;51.506;10.272;2023-11-21T07:39:21;99212.06;;;6.36;100.00
50282;BME280;36176;51.506;10.272;2023-11-21T07:41:48;99212.88;;;6.38;100.00
50282;BME280;36176;51.506;10.272;2023-11-21T07:44:16;99210.88;;;6.45;100.00
50282;BME280;36176;51.506;10.272;2023-11-21T07:46:43;99215.06;;;6.50;100.00
50282;BME280;36176;51.506;10.272;2023-11-21T07:49:11;99215.72;;;6.57;100.00
50282;BME280;36176;51.506;10.272;2023-11-21T07:51:38;99214.72;;;6.61;100.00
50282;BME280;36176;51.506;10.272;2023-11-21T07:54:06;99215.50;;;6.63;100.00
50282;BME280;36176;51.506;10.272;2023-11-21T07:56:35;99217.19;;;6.66;100.00
50282;BME280;36176;51.506;10.272;2023-11-21T07:59:02;99224.91;;;6.70;100.00
50282;BME280;36176;51.506;10.272;2023-11-21T08:01:30;99230.06;;;6.73;100.00
50282;BME280;36176;51.506;10.272;2023-11-21T08:03:57;99233.44;;;6.77;100.00
50282;BME280;36176;51.506;10.272;2023-11-21T08:06:24;99236.78;;;6.82;100.00
50282;BME280;36176;51.506;10.272;2023-11-21T08:08:52;99241.19;;;6.81;100.00
50282;BME280;36176;51.506;10.272;2023-11-21T08:11:19;99240.16;;;6.86;100.00
50282;BME280;36176;51.506;10.272;2023-11-21T08:13:48;99239.75;;;6.96;100.00
50282;BME280;36176;51.506;10.272;2023-11-21T08:16:15;99250.78;;;7.08;100.00
50282;BME280;36176;51.506;10.272;2023-11-21T08:18:42;99245.19;;;7.17;100.00
50282;BME280;36176;51.506;10.272;2023-11-21T08:21:12;99253.59;;;7.27;100.00
50282;BME280;36176;51.506;10.272;2023-11-21T08:23:39;99255.22;;;7.31;100.00
50282;BME280;36176;51.506;10.272;2023-11-21T08:26:07;99254.25;;;7.33;100.00
50282;BME280;36176;51.506;10.272;2023-11-21T08:28:34;99251.53;;;7.35;100.00
50282;BME280;36176;51.506;10.272;2023-11-21T08:31:01;99255.78;;;7.39;100.00
50282;BME280;36176;51.506;10.272;2023-11-21T08:33:28;99258.25;;;7.43;100.00
50282;BME280;36176;51.506;10.272;2023-11-21T08:35:55;99257.03;;;7.52;100.00
50282;BME280;36176;51.506;10.272;2023-11-21T08:38:23;99258.63;;;7.56;100.00
50282;BME280;36176;51.506;10.272;2023-11-21T08:40:50;99261.84;;;7.64;100.00
50282;BME280;36176;51.506;10.272;2023-11-21T08:43:17;99259.22;;;7.64;100.00
50282;BME280;36176;51.506;10.272;2023-11-21T08:45:44;99261.75;;;7.66;100.00
50282;BME280;36176;51.506;10.272;2023-11-21T08:48:11;99267.75;;;7.71;100.00
50282;BME280;36176;51.506;10.272;2023-11-21T08:50:38;99272.09;;;7.72;100.00
50282;BME280;36176;51.506;10.272;2023-11-21T08:53:06;99265.16;;;7.70;100.00
50282;BME280;36176;51.506;10.272;2023-11-21T08:55:33;99273.06;;;7.70;100.00
50282;BME280;36176;51.506;10.272;2023-11-21T08:58:01;99279.94;;;7.74;100.00
50282;BME280;36176;51.506;10.272;2023-11-21T09:00:28;99273.56;;;7.79;100.00
50282;BME280;36176;51.506;10.272;2023-11-21T09:02:55;99274.31;;;7.83;100.00
50282;BME280;36176;51.506;10.272;2023-11-21T09:05:22;99279.59;;;7.83;100.00
50282;BME280;36176;51.506;10.272;2023-11-21T09:07:49;99290.16;;;7.83;100.00
50282;BME280;36176;51.506;10.272;2023-11-21T09:10:18;99284.75;;;7.86;100.00
50282;BME280;36176;51.506;10.272;2023-11-21T09:12:45;99284.50;;;7.92;100.00
50282;BME280;36176;51.506;10.272;2023-11-21T09:15:13;99294.69;;;8.01;100.00
50282;BME280;36176;51.506;10.272;2023-11-21T09:17:40;99292.81;;;8.05;100.00
50282;BME280;36176;51.506;10.272;2023-11-21T09:20:08;99291.16;;;8.02;100.00
50282;BME280;36176;51.506;10.272;2023-11-21T09:22:36;99292.84;;;8.03;100.00
50282;BME280;36176;51.506;10.272;2023-11-21T09:25:03;99297.09;;;8.07;100.00
50282;BME280;36176;51.506;10.272;2023-11-21T09:27:31;99297.09;;;8.07;100.00
50282;BME280;36176;51.506;10.272;2023-11-21T09:29:58;99299.59;;;8.10;100.00
50282;BME280;36176;51.506;10.272;2023-11-21T09:32:26;99298.81;;;8.08;100.00
50282;BME280;36176;51.506;10.272;2023-11-21T09:34:53;99305.09;;;8.04;100.00
50282;BME280;36176;51.506;10.272;2023-11-21T09:37:20;99301.00;;;7.97;100.00
50282;BME280;36176;51.506;10.272;2023-11-21T09:39:47;99309.00;;;7.96;100.00
50282;BME280;36176;51.506;10.272;2023-11-21T09:45:34;99313.75;;;7.86;100.00
50282;BME280;36176;51.506;10.272;2023-11-21T09:48:02;99311.13;;;7.86;100.00
50282;BME280;36176;51.506;10.272;2023-11-21T09:50:29;99315.56;;;7.85;100.00
50282;BME280;36176;51.506;10.272;2023-11-21T09:53:07;99315.56;;;7.85;100.00
50282;BME280;36176;51.506;10.272;2023-11-21T09:55:36;99314.66;;;7.85;100.00
50282;BME280;36176;51.506;10.272;2023-11-21T09:58:04;99320.69;;;7.88;100.00
50282;BME280;36176;51.506;10.272;2023-11-21T10:00:32;99312.72;;;7.90;100.00
50282;BME280;36176;51.506;10.272;2023-11-21T10:03:00;99313.47;;;7.94;100.00
50282;BME280;36176;51.506;10.272;2023-11-21T10:05:28;99316.91;;;7.96;100.00
50282;BME280;36176;51.506;10.272;2023-11-21T10:07:56;99320.94;;;8.04;100.00
50282;BME280;36176;51.506;10.272;2023-11-21T10:10:24;99327.19;;;8.02;100.00
50282;BME280;36176;51.506;10.272;2023-11-21T10:12:56;99320.94;;;8.04;100.00
50282;BME280;36176;51.506;10.272;2023-11-21T10:15:24;99321.75;;;8.06;100.00
50282;BME280;36176;51.506;10.272;2023-11-21T10:17:52;99323.47;;;8.07;100.00
50282;BME280;36176;51.506;10.272;2023-11-21T10:20:20;99324.34;;;8.08;100.00
50282;BME280;36176;51.506;10.272;2023-11-21T10:22:48;99320.16;;;8.02;100.00
50282;BME280;36176;51.506;10.272;2023-11-21T10:25:16;99333.38;;;8.02;100.00
50282;BME280;36176;51.506;10.272;2023-11-21T10:27:48;99328.19;;;7.99;100.00
50282;BME280;36176;51.506;10.272;2023-11-21T10:30:15;99331.81;;;7.97;100.00
50282;BME280;36176;51.506;10.272;2023-11-21T10:32:42;99338.00;;;7.96;100.00
50282;BME280;36176;51.506;10.272;2023-11-21T10:35:10;99343.41;;;7.93;100.00
50282;BME280;36176;51.506;10.272;2023-11-21T10:37:42;99341.72;;;7.90;100.00
50282;BME280;36176;51.506;10.272;2023-11-21T10:40:10;99349.63;;;7.90;100.00
50282;BME280;36176;51.506;10.272;2023-11-21T10:42:38;99343.69;;;7.85;100.00
50282;BME280;36176;51.506;10.272;2023-11-21T10:45:06;99352.56;;;7.82;100.00
50282;BME280;36176;51.506;10.272;2023-11-21T10:47:33;99352.41;;;7.87;100.00
50282;BME280;36176;51.506;10.272;2023-11-21T10:50:01;99354.00;;;7.91;100.00
50282;BME280;36176;51.506;10.272;2023-11-21T10:52:28;99343.34;;;7.94;100.00
50282;BME280;36176;51.506;10.272;2023-11-21T10:54:55;99347.75;;;7.94;100.00
50282;BME280;36176;51.506;10.272;2023-11-21T10:57:22;99358.25;;;7.95;100.00
50282;BME280;36176;51.506;10.272;2023-11-21T10:59:50;99355.50;;;7.98;100.00
50282;BME280;36176;51.506;10.272;2023-11-21T11:02:24;99354.56;;;7.99;100.00
50282;BME280;36176;51.506;10.272;2023-11-21T11:04:52;99351.94;;;7.99;100.00
50282;BME280;36176;51.506;10.272;2023-11-21T11:07:21;99355.44;;;8.00;100.00
50282;BME280;36176;51.506;10.272;2023-11-21T11:09:53;99356.31;;;8.00;100.00
50282;BME280;36176;51.506;10.272;2023-11-21T11:12:21;99359.75;;;8.02;100.00
50282;BME280;36176;51.506;10.272;2023-11-21T11:14:51;99363.28;;;8.01;100.00
50282;BME280;36176;51.506;10.272;2023-11-21T11:17:21;99360.66;;;8.01;100.00
50282;BME280;36176;51.506;10.272;2023-11-21T11:19:49;99355.44;;;8.00;100.00
50282;BME280;36176;51.506;10.272;2023-11-21T11:22:29;99367.88;;;7.96;100.00
50282;BME280;36176;51.506;10.272;2023-11-21T11:28:17;99368.88;;;7.94;100.00
50282;BME280;36176;51.506;10.272;2023-11-21T11:31:00;99364.53;;;7.93;100.00
50282;BME280;36176;51.506;10.272;2023-11-21T11:33:50;99372.47;;;7.91;100.00
50282;BME280;36176;51.506;10.272;2023-11-21T11:36:41;99371.53;;;7.92;100.00
50282;BME280;36176;51.506;10.272;2023-11-21T11:39:37;99363.53;;;7.95;100.00
50282;BME280;36176;51.506;10.272;2023-11-21T11:42:08;99368.91;;;7.92;100.00
50282;BME280;36176;51.506;10.272;2023-11-21T11:47:13;99379.59;;;7.89;100.00
50282;BME280;36176;51.506;10.272;2023-11-21T11:50:17;99381.41;;;7.87;100.00
50282;BME280;36176;51.506;10.272;2023-11-21T11:52:52;99383.50;;;7.79;100.00
50282;BME280;36176;51.506;10.272;2023-11-21T11:55:21;99384.50;;;7.75;100.00
50282;BME280;36176;51.506;10.272;2023-11-21T11:57:53;99396.00;;;7.74;100.00
50282;BME280;36176;51.506;10.272;2023-11-21T12:02:56;99398.63;;;7.74;100.00
50282;BME280;36176;51.506;10.272;2023-11-21T12:05:23;99398.50;;;7.77;100.00
50282;BME280;36176;51.506;10.272;2023-11-21T12:07:52;99399.19;;;7.82;100.00
50282;BME280;36176;51.506;10.272;2023-11-21T12:10:24;99403.50;;;7.84;100.00
50282;BME280;36176;51.506;10.272;2023-11-21T12:12:55;99399.03;;;7.86;100.00
50282;BME280;36176;51.506;10.272;2023-11-21T12:15:22;99409.63;;;7.85;100.00
50282;BME280;36176;51.506;10.272;2023-11-21T12:17:51;99411.25;;;7.89;100.00
50282;BME280;36176;51.506;10.272;2023-11-21T12:20:19;99414.69;;;7.91;100.00
50282;BME280;36176;51.506;10.272;2023-11-21T12:22:54;99411.25;;;7.89;100.00
50282;BME280;36176;51.506;10.272;2023-11-21T12:25:23;99418.22;;;7.90;100.00
50282;BME280;36176;51.506;10.272;2023-11-21T12:27:52;99417.31;;;7.91;100.00
50282;BME280;36176;51.506;10.272;2023-11-21T12:30:21;99418.00;;;7.96;100.00
50282;BME280;36176;51.506;10.272;2023-11-21T12:32:50;99420.47;;;8.01;100.00
50282;BME280;36176;51.506;10.272;2023-11-21T12:35:22;99421.34;;;8.01;100.00
50282;BME280;36176;51.506;10.272;2023-11-21T12:37:51;99421.22;;;8.04;100.00
50282;BME280;36176;51.506;10.272;2023-11-21T12:40:19;99426.50;;;8.04;100.00
50282;BME280;36176;51.506;10.272;2023-11-21T12:42:47;99424.66;;;8.06;100.00
50282;BME280;36176;51.506;10.272;2023-11-21T12:45:22;99416.88;;;8.03;100.00
50282;BME280;36176;51.506;10.272;2023-11-21T12:47:51;99419.50;;;8.03;100.00
50282;BME280;36176;51.506;10.272;2023-11-21T12:50:20;99427.38;;;8.05;100.00
50282;BME280;36176;51.506;10.272;2023-11-21T12:52:47;99433.47;;;8.07;100.00
50282;BME280;36176;51.506;10.272;2023-11-21T12:55:16;99432.66;;;8.05;100.00
50282;BME280;36176;51.506;10.272;2023-11-21T12:57:44;99437.16;;;8.01;100.00
50282;BME280;36176;51.506;10.272;2023-11-21T13:00:13;99443.47;;;7.97;99.32
50282;BME280;36176;51.506;10.272;2023-11-21T13:02:43;99447.88;;;7.97;99.46
50282;BME280;36176;51.506;10.272;2023-11-21T13:05:10;99448.81;;;7.96;98.93
50282;BME280;36176;51.506;10.272;2023-11-21T13:07:44;99448.88;;;7.94;99.02
50282;BME280;36176;51.506;10.272;2023-11-21T13:10:11;99445.38;;;7.94;98.93
50282;BME280;36176;51.506;10.272;2023-11-21T13:12:45;99450.69;;;7.92;98.53
50282;BME280;36176;51.506;10.272;2023-11-21T13:15:14;99455.97;;;7.92;99.13
50282;BME280;36176;51.506;10.272;2023-11-21T13:17:41;99455.16;;;7.90;98.35
50282;BME280;36176;51.506;10.272;2023-11-21T13:20:08;99460.44;;;7.90;98.40
50282;BME280;36176;51.506;10.272;2023-11-21T13:22:36;99457.06;;;7.86;98.63
50282;BME280;36176;51.506;10.272;2023-11-21T13:25:03;99472.03;;;7.86;98.52
50282;BME280;36176;51.506;10.272;2023-11-21T13:27:30;99482.75;;;7.81;98.57
50282;BME280;36176;51.506;10.272;2023-11-21T13:29:57;99486.53;;;7.74;98.86
50282;BME280;36176;51.506;10.272;2023-11-21T13:32:25;99492.06;;;7.66;99.11
50282;BME280;36176;51.506;10.272;2023-11-21T13:34:52;99493.50;;;7.50;97.86
50282;BME280;36176;51.506;10.272;2023-11-21T13:37:19;99503.56;;;7.39;97.46
50282;BME280;36176;51.506;10.272;2023-11-21T13:39:46;99515.63;;;7.19;97.58
50282;BME280;36176;51.506;10.272;2023-11-21T13:42:15;99508.00;;;7.10;97.63
50282;BME280;36176;51.506;10.272;2023-11-21T13:44:42;99508.22;;;7.04;97.28
50282;BME280;36176;51.506;10.272;2023-11-21T13:47:10;99505.78;;;6.98;94.79
50282;BME280;36176;51.506;10.272;2023-11-21T13:49:37;99526.28;;;6.88;94.53
50282;BME280;36176;51.506;10.272;2023-11-21T13:52:04;99530.00;;;6.81;94.30
50282;BME280;36176;51.506;10.272;2023-11-21T13:54:32;99537.88;;;6.82;95.14
50282;BME280;36176;51.506;10.272;2023-11-21T13:56:59;99538.75;;;6.81;95.61
50282;BME280;36176;51.506;10.272;2023-11-21T13:59:27;99543.22;;;6.79;95.76
50282;BME280;36176;51.506;10.272;2023-11-21T14:01:57;99552.13;;;6.75;95.24
50282;BME280;36176;51.506;10.272;2023-11-21T14:04:26;99563.00;;;6.63;92.86
50282;BME280;36176;51.506;10.272;2023-11-21T14:06:53;99577.25;;;6.56;92.38
50282;BME280;36176;51.506;10.272;2023-11-21T14:09:21;99576.63;;;6.48;92.42
50282;BME280;36176;51.506;10.272;2023-11-21T14:11:51;99588.16;;;6.44;92.27
50282;BME280;36176;51.506;10.272;2023-11-21T14:14:21;99583.78;;;6.44;92.99
50282;BME280;36176;51.506;10.272;2023-11-21T14:16:48;99595.06;;;6.48;92.21
50282;BME280;36176;51.506;10.272;2023-11-21T14:19:18;99589.63;;;6.54;93.41
50282;BME280;36176;51.506;10.272;2023-11-21T14:21:46;99594.91;;;6.54;92.42
50282;BME280;36176;51.506;10.272;2023-11-21T14:24:14;99599.16;;;6.58;92.98
50282;BME280;36176;51.506;10.272;2023-11-21T14:26:42;99593.81;;;6.61;92.29
50282;BME280;36176;51.506;10.272;2023-11-21T14:29:10;99602.66;;;6.58;91.75
50282;BME280;36176;51.506;10.272;2023-11-21T14:31:37;99607.03;;;6.58;91.71
50282;BME280;36176;51.506;10.272;2023-11-21T14:34:04;99608.00;;;6.55;91.39
50282;BME280;36176;51.506;10.272;2023-11-21T14:36:32;99608.84;;;6.56;91.31
50282;BME280;36176;51.506;10.272;2023-11-21T14:38:59;99614.94;;;6.58;91.60
50282;BME280;36176;51.506;10.272;2023-11-21T14:41:26;99619.38;;;6.56;91.29
50282;BME280;36176;51.506;10.272;2023-11-21T14:43:54;99627.38;;;6.53;89.88
50282;BME280;36176;51.506;10.272;2023-11-21T14:46:21;99630.25;;;6.44;89.98
50282;BME280;36176;51.506;10.272;2023-11-21T14:48:48;99636.47;;;6.41;90.32
50282;BME280;36176;51.506;10.272;2023-11-21T14:51:16;99630.34;;;6.41;90.21
50282;BME280;36176;51.506;10.272;2023-11-21T14:53:42;99631.16;;;6.44;90.93
50282;BME280;36176;51.506;10.272;2023-11-21T14:56:10;99645.09;;;6.46;90.61
50282;BME280;36176;51.506;10.272;2023-11-21T14:58:37;99650.38;;;6.46;90.51
50282;BME280;36176;51.506;10.272;2023-11-21T15:01:04;99646.88;;;6.46;90.45
50282;BME280;36176;51.506;10.272;2023-11-21T15:03:32;99656.44;;;6.50;90.89
50282;BME280;36176;51.506;10.272;2023-11-21T15:06:01;99666.97;;;6.50;90.76
50282;BME280;36176;51.506;10.272;2023-11-21T15:08:28;99667.91;;;6.47;91.19
50282;BME280;36176;51.506;10.272;2023-11-21T15:10:56;99677.50;;;6.48;91.49
50282;BME280;36176;51.506;10.272;2023-11-21T15:13:23;99682.88;;;6.45;90.66
50282;BME280;36176;51.506;10.272;2023-11-21T15:15:50;99688.28;;;6.39;91.00
50282;BME280;36176;51.506;10.272;2023-11-21T15:18:19;99684.91;;;6.34;90.75
50282;BME280;36176;51.506;10.272;2023-11-21T15:20:47;99675.44;;;6.28;90.15
50282;BME280;36176;51.506;10.272;2023-11-21T15:23:14;99686.94;;;6.24;89.38
50282;BME280;36176;51.506;10.272;2023-11-21T15:25:41;99683.44;;;6.24;90.29
50282;BME280;36176;51.506;10.272;2023-11-21T15:28:08;99686.16;;;6.21;89.87
50282;BME280;36176;51.506;10.272;2023-11-21T15:30:35;99690.72;;;6.12;88.39
50282;BME280;36176;51.506;10.272;2023-11-21T15:33:03;99685.66;;;6.06;88.30
50282;BME280;36176;51.506;10.272;2023-11-21T15:35:30;99691.91;;;6.01;88.21
50282;BME280;36176;51.506;10.272;2023-11-21T15:37:57;99700.72;;;6.00;88.87
50282;BME280;36176;51.506;10.272;2023-11-21T15:40:24;99700.63;;;6.03;89.25
50282;BME280;36176;51.506;10.272;2023-11-21T15:42:52;99697.94;;;6.06;89.33
50282;BME280;36176;51.506;10.272;2023-11-21T15:45:19;99704.91;;;6.07;88.96
50282;BME280;36176;51.506;10.272;2023-11-21T15:47:46;99716.34;;;6.06;89.65
50282;BME280;36176;51.506;10.272;2023-11-21T15:50:13;99717.25;;;6.03;89.63
50282;BME280;36176;51.506;10.272;2023-11-21T15:52:41;99725.22;;;6.02;89.14
50282;BME280;36176;51.506;10.272;2023-11-21T15:55:24;99728.78;;;5.99;89.59